Spring Hill, California
Current Conditions -  °F | °C
As of 7:10 AM on Friday 31 Oct 2014 (Local Time) from KGOO Reporting Station
Clear Clear  
Wind Chill: 50°   Ceiling: Unl
Heat Index: 50°   Visibility: 10mi
Dew Point: 43°   Wind: 8mph
Humidity: 76%   Direction: 120°ESE
Pressure: 29.88"   Gusts: NA
Location:  39.2183°N, 120.924°W
Report Text: KGOO 311410Z AUTO 12007KT 10SM CLR 10/06 A2988 RMK AO1
Loading
Personal Weather Stations






























Interactive Weather Map New forecast layout! Learn more

10-Day Weather Forecast

Advertisements
Track Severe Weather on mobile